Time;durP1;ratioP1;P1;durP2;ratioP2;P2;SDS_P1;SDS_P2;PMS_P1;PMS_P2;Temp;Humidity;BMP_temperature;BMP_pressure;BME280_temperature;BME280_humidity;BME280_pressure;Samples;Min_cycle;Max_cycle;Signal;HPM_P1;HPM_P2
2021/11/09 07:28:58;;;;;;;;;;;;;;;-1.40;100.00;100124.94;4988456;28;20207;-81
2021/11/09 07:36:00;;;;;;;9.37;5.87;;;;;;;-1.15;100.00;100109.28;4876541;28;20073;-79
2021/11/09 07:41:55;;;;;;;9.73;4.97;;;;;;;-0.88;100.00;100129.16;4916968;28;20091;-79
2021/11/09 07:44:30;;;;;;;10.57;4.80;;;;;;;-0.91;100.00;100116.84;5059424;28;20057;-79
2021/11/09 07:47:22;;;;;;;11.53;5.73;;;;;;;-0.84;100.00;100123.56;5066396;28;20185;-79
2021/11/09 07:50:35;;;;;;;20.40;6.03;;;;;;;-0.75;100.00;100112.34;5048964;28;20069;-79
2021/11/09 07:56:15;;;;;;;16.47;5.87;;;;;;;-0.48;100.00;100124.16;5038158;28;20049;-79
2021/11/09 07:58:53;;;;;;;12.23;5.10;;;;;;;-0.34;100.00;100134.88;5048690;28;20534;-79
2021/11/09 08:01:33;;;;;;;9.17;5.50;;;;;;;-0.30;100.00;100130.19;5029221;28;20139;-79
2021/11/09 08:04:09;;;;;;;;;;;;;;;-0.26;100.00;100129.94;5029732;28;20060;-79
2021/11/09 08:07:00;;;;;;;10.63;5.23;;;;;;;-0.17;100.00;100130.34;5029059;28;20447;-79
2021/11/09 08:09:28;;;;;;;10.77;5.13;;;;;;;-0.18;100.00;100116.13;5031466;28;20052;-79
2021/11/09 08:11:56;;;;;;;19.10;9.70;;;;;;;-0.05;100.00;100113.56;5047959;28;20077;-79
2021/11/09 08:14:23;;;;;;;20.50;9.17;;;;;;;0.02;100.00;100116.72;5049072;28;20491;-79
2021/11/09 08:16:50;;;;;;;19.63;8.10;;;;;;;0.02;100.00;100114.06;5047810;28;20417;-79
2021/11/09 08:19:19;;;;;;;20.87;8.63;;;;;;;0.25;100.00;100123.31;5048784;28;20052;-79
2021/11/09 08:21:48;;;;;;;18.50;7.85;;;;;;;0.25;100.00;100113.47;5042512;28;20248;-79
2021/11/09 08:24:17;;;;;;;17.77;8.43;;;;;;;0.23;100.00;100099.34;5028446;28;20135;-79
2021/11/09 08:26:44;;;;;;;21.55;8.77;;;;;;;0.47;100.00;100121.00;5028421;28;20481;-79
2021/11/09 08:29:11;;;;;;;16.05;8.15;;;;;;;0.55;100.00;100123.19;5047248;28;20088;-79
2021/11/09 08:31:42;;;;;;;13.32;7.47;;;;;;;0.56;100.00;100105.31;5048106;28;20132;-79
2021/11/09 08:34:09;;;;;;;17.27;7.50;;;;;;;0.66;100.00;100103.78;5042320;28;20049;-80
2021/11/09 08:36:39;;;;;;;17.10;8.02;;;;;;;0.83;100.00;100114.25;5034605;28;20045;-79
2021/11/09 08:39:09;;;;;;;17.52;7.50;;;;;;;0.90;100.00;100111.19;5027083;28;20061;-80
2021/11/09 08:41:40;;;;;;;10.55;6.65;;;;;;;0.91;100.00;100105.72;5014813;28;20455;-81
2021/11/09 08:44:09;;;;;;;23.27;7.00;;;;;;;1.05;100.00;100115.53;5032758;28;20042;-80
2021/11/09 08:46:41;;;;;;;14.15;6.88;;;;;;;1.19;100.00;100112.81;5014876;28;20489;-81
2021/11/09 08:49:13;;;;;;;14.50;7.53;;;;;;;1.29;100.00;100115.72;5014996;28;20050;-81
2021/11/09 08:51:43;;;;;;;13.65;7.78;;;;;;;1.41;100.00;100109.53;5033657;28;20451;-81
2021/11/09 08:54:14;;;;;;;16.92;7.80;;;;;;;1.51;100.00;100109.78;5034624;28;20057;-81
2021/11/09 09:04:57;;;;;;;16.50;7.45;;;;;;;1.84;100.00;100092.38;5034476;28;20094;-81
2021/11/09 09:07:27;;;;;;;15.30;7.72;;;;;;;2.09;100.00;100104.06;5033969;28;20067;-81
2021/11/09 09:09:56;;;;;;;13.93;7.82;;;;;;;2.22;100.00;100096.88;5027451;28;20042;-81
2021/11/09 09:12:36;;;;;;;22.38;8.13;;;;;;;2.34;100.00;100099.66;5031116;28;20050;-81
2021/11/09 09:15:08;;;;;;;15.23;7.80;;;;;;;2.37;100.00;100092.22;5034364;28;20049;-81
2021/11/09 09:18:24;;;;;;;11.85;6.95;;;;;;;2.58;100.00;100092.50;5033570;28;20057;-81
2021/11/09 09:21:09;;;;;;;10.73;6.22;;;;;;;2.82;100.00;100089.03;4957947;28;20481;-81
2021/11/09 09:24:02;;;;;;;11.05;6.18;;;;;;;2.96;100.00;100093.38;5023241;28;20053;-81
2021/11/09 09:29:56;;;;;;;14.30;6.28;;;;;;;3.40;100.00;100081.09;5029962;28;20053;-82
2021/11/09 09:58:45;;;;;;;4.80;2.15;;;;;;;5.85;89.58;100090.16;4978975;28;20105;-81
2021/11/09 10:01:17;;;;;;;7.82;2.13;;;;;;;5.96;87.27;100090.09;5021973;28;20061;-81
2021/11/09 10:04:19;;;;;;;11.35;2.47;;;;;;;5.95;86.64;100079.44;5034336;28;20129;-81
2021/11/09 10:10:23;;;;;;;11.73;2.90;;;;;;;6.16;83.45;100069.50;5011752;28;20425;-82
2021/11/09 10:13:22;;;;;;;6.35;2.05;;;;;;;6.36;81.36;100078.53;5014485;28;20133;-82
2021/11/09 10:19:34;;;;;;;10.90;1.90;;;;;;;6.45;78.50;100055.25;5013955;28;20156;-80
2021/11/09 10:22:21;;;;;;;4.72;1.88;;;;;;;6.57;80.95;100068.69;5023152;28;20052;-80
2021/11/09 10:25:32;;;;;;;7.28;1.67;;;;;;;6.60;78.73;100058.44;5031828;28;20057;-81
2021/11/09 10:28:05;;;;;;;7.05;1.95;;;;;;;6.72;78.61;100068.16;5032499;28;20141;-80
2021/11/09 10:30:45;;;;;;;6.85;1.80;;;;;;;6.67;80.16;100053.31;5031403;28;20061;-81
2021/11/09 10:33:40;;;;;;;10.50;2.17;;;;;;;6.73;79.90;100063.63;5022745;28;20467;-80
2021/11/09 10:39:51;;;;;;;3.40;1.60;;;;;;;6.83;77.95;100048.25;5024561;28;20050;-80
2021/11/09 10:43:14;;;;;;;11.38;1.88;;;;;;;6.97;76.75;100048.84;5032249;28;20055;-80
2021/11/09 10:50:01;;;;;;;;;;;;;;;;;;;;;
2021/11/09 10:52:39;;;;;;;6.03;1.90;;;;;;;7.43;73.82;100052.72;4973537;28;20050;-79
2021/11/09 10:58:59;;;;;;;3.25;1.83;;;;;;;7.33;73.66;100019.41;4980752;28;20043;-80
2021/11/09 11:04:41;;;;;;;7.82;1.65;;;;;;;7.54;75.61;100040.91;5030264;28;20057;-84
2021/11/09 11:07:15;;;;;;;4.60;1.70;;;;;;;7.55;70.77;100019.09;5032901;28;20107;-82
2021/11/09 11:13:23;;;;;;;4.82;1.77;;;;;;;7.54;73.05;100016.53;5019778;28;20040;-82
2021/11/09 11:16:10;;;;;;;3.67;1.70;;;;;;;7.61;74.00;100025.78;5032281;28;20060;-82
2021/11/09 11:18:41;;;;;;;6.38;1.40;;;;;;;7.64;74.85;100011.97;5014765;28;20065;-82
2021/11/09 11:21:09;;;;;;;5.88;1.50;;;;;;;7.76;73.02;100016.22;5030020;28;20069;-82
2021/11/09 11:23:36;;;;;;;5.22;1.42;;;;;;;7.89;70.63;100015.03;5031057;28;20060;-82
2021/11/09 11:26:05;;;;;;;2.83;1.27;;;;;;;7.94;70.07;100016.31;5031843;28;20544;-81
2021/11/09 11:28:36;;;;;;;5.45;1.45;;;;;;;8.06;69.66;100010.72;5029204;28;20099;-81
2021/11/09 11:31:25;;;;;;;2.03;1.02;;;;;;;8.11;71.91;100009.28;5031827;28;20053;-81
2021/11/09 11:33:53;;;;;;;2.22;1.00;;;;;;;8.31;68.69;100025.47;5030965;28;20131;-81
2021/11/09 11:36:20;;;;;;;2.83;1.20;;;;;;;8.25;66.96;100009.78;5033316;28;20049;-81
2021/11/09 11:38:49;;;;;;;2.95;1.23;;;;;;;8.37;71.41;100011.31;5030920;28;20057;-81
2021/11/09 11:41:21;;;;;;;1.70;1.02;;;;;;;8.40;65.93;100011.03;5029053;28;20452;-81
2021/11/09 11:44:06;;;;;;;6.72;1.33;;;;;;;8.37;66.51;99996.91;5024190;28;20045;-82
2021/11/09 11:46:50;;;;;;;3.13;1.40;;;;;;;8.43;65.44;99985.44;5028323;28;20045;-81
2021/11/09 11:49:46;;;;;;;1.75;1.00;;;;;;;8.53;65.91;99993.59;5013094;28;20054;-81
2021/11/09 11:52:25;;;;;;;3.53;0.82;;;;;;;8.63;66.77;99994.38;5011760;28;20510;-81
2021/11/09 11:54:58;;;;;;;4.75;1.73;;;;;;;8.55;67.38;99969.88;5032301;28;20485;-81
2021/11/09 11:57:35;;;;;;;3.90;1.30;;;;;;;8.76;68.46;99992.16;5032739;28;20136;-81
2021/11/09 12:00:25;;;;;;;4.05;1.05;;;;;;;8.68;69.85;99971.22;5028725;28;20551;-81
2021/11/09 12:02:52;;;;;;;4.50;1.23;;;;;;;8.61;70.06;99961.13;4998909;28;20053;-82
2021/11/09 12:08:15;;;;;;;4.43;1.30;;;;;;;8.67;66.06;99958.69;5151121;27;20373;-82
2021/11/09 12:10:49;;;;;;;6.68;1.35;;;;;;;8.55;66.85;99962.63;5151010;27;20095;-82
2021/11/09 12:13:56;;;;;;;5.35;1.10;;;;;;;8.64;64.25;99950.84;5150387;27;20049;-82
2021/11/09 12:17:08;;;;;;;4.00;1.23;;;;;;;8.84;62.98;99969.69;5141086;27;20191;-82
2021/11/09 12:23:31;;;;;;;4.78;1.30;;;;;;;8.80;64.70;99944.72;5145189;27;20133;-81
2021/11/09 12:29:49;;;;;;;6.47;1.48;;;;;;;8.91;63.04;99951.78;5149709;27;20485;-82
2021/11/09 12:32:57;;;;;;;2.15;1.00;;;;;;;8.94;63.98;99959.63;5147518;27;20082;-81
2021/11/09 12:35:28;;;;;;;7.28;1.77;;;;;;;8.90;65.54;99952.81;5140319;27;20097;-82
2021/11/09 13:12:36;;;;;;;4.43;1.98;;;;;;;9.08;65.36;99920.25;5005671;28;20053;-80
2021/11/09 13:15:43;;;;;;;6.47;1.85;;;;;;;9.25;66.99;99942.09;4996172;28;20273;-80
2021/11/09 13:21:52;;;;;;;4.28;1.08;;;;;;;9.15;64.37;99931.31;4973300;28;20058;-81
2021/11/09 13:24:55;;;;;;;5.93;1.73;;;;;;;9.17;65.27;99923.88;4981735;28;20058;-80
2021/11/09 13:28:20;;;;;;;3.47;1.42;;;;;;;9.15;65.15;99920.47;5031118;28;20045;-81
2021/11/09 13:31:22;;;;;;;6.65;1.27;;;;;;;9.18;65.91;99910.16;4973128;28;20054;-81
2021/11/09 13:37:17;;;;;;;2.88;1.30;;;;;;;9.30;64.70;99935.16;4972831;28;20161;-80
2021/11/09 13:40:33;;;;;;;3.40;1.48;;;;;;;9.42;66.32;99932.19;4963058;28;20055;-81
2021/11/09 13:43:16;;;;;;;2.38;0.98;;;;;;;9.25;66.54;99912.25;5019164;28;20058;-81
2021/11/09 13:45:47;;;;;;;3.90;1.17;;;;;;;9.28;65.40;99903.78;5024310;28;20073;-81
2021/11/09 13:48:27;;;;;;;;;;;;;;;9.39;66.70;99930.66;5034489;28;20060;-81
2021/11/09 13:50:59;;;;;;;2.15;1.02;;;;;;;9.35;64.09;99924.69;5027298;28;19934;-81
2021/11/09 13:53:28;;;;;;;3.20;1.30;;;;;;;9.21;63.89;99900.84;5018233;28;20060;-81
2021/11/09 13:55:55;;;;;;;2.45;1.35;;;;;;;9.20;66.65;99919.00;5034333;28;20049;-81
2021/11/09 13:58:24;;;;;;;1.30;1.02;;;;;;;9.30;63.80;99915.31;5029666;28;20053;-81
2021/11/09 14:00:54;;;;;;;3.25;1.10;;;;;;;9.38;62.34;99916.25;5021386;28;20053;-81
2021/11/09 14:03:28;;;;;;;;;;;;;;;9.36;62.24;99929.13;5032199;28;20136;-81
2021/11/09 14:17:08;;;;;;;2.50;1.52;;;;;;;9.25;62.96;99899.53;5033126;28;20504;-80
2021/11/09 14:19:40;;;;;;;2.80;1.10;;;;;;;9.25;63.56;99890.53;5033045;28;20045;-81
2021/11/09 14:22:13;;;;;;;5.35;1.40;;;;;;;9.25;62.82;99894.09;5031952;28;20057;-80
2021/11/09 14:24:41;;;;;;;5.28;1.10;;;;;;;9.27;62.92;99897.50;5035150;28;20404;-81
2021/11/09 14:27:10;;;;;;;7.93;1.35;;;;;;;9.10;64.56;99888.38;5034469;28;20151;-81
2021/11/09 14:29:42;;;;;;;4.32;0.93;;;;;;;9.19;63.48;99884.72;5029746;28;20476;-81
2021/11/09 14:32:15;;;;;;;2.58;1.30;;;;;;;9.25;62.29;99896.81;5016964;28;20127;-80
2021/11/09 14:34:56;;;;;;;1.85;1.00;;;;;;;9.23;64.13;99900.69;5021330;28;20076;-80
2021/11/09 14:37:26;;;;;;;4.53;1.00;;;;;;;9.24;63.82;99896.97;5021717;28;20042;-80
2021/11/09 14:40:05;;;;;;;2.40;0.80;;;;;;;9.19;63.87;99895.56;5013275;28;20107;-80
2021/11/09 14:42:44;;;;;;;4.65;1.00;;;;;;;9.12;63.99;99889.09;5016669;28;20060;-80
2021/11/09 14:45:20;;;;;;;5.10;0.80;;;;;;;9.14;66.54;99899.78;5033297;28;20107;-80
2021/11/09 14:47:50;;;;;;;1.17;0.80;;;;;;;9.02;64.84;99899.19;5033699;28;20119;-80
2021/11/09 14:50:27;;;;;;;3.38;1.30;;;;;;;8.94;65.26;99894.56;5033040;28;20049;-79
2021/11/09 14:53:05;;;;;;;1.05;0.82;;;;;;;8.88;64.39;99889.72;5032505;28;20045;-79
2021/11/09 14:55:42;;;;;;;5.25;1.20;;;;;;;8.75;65.24;99886.59;5033129;28;20408;-79
2021/11/09 14:58:28;;;;;;;2.97;0.80;;;;;;;8.61;64.87;99885.25;5033111;28;20084;-79
2021/11/09 15:01:02;;;;;;;3.13;0.90;;;;;;;8.70;65.07;99899.72;5025236;28;20502;-79
2021/11/09 15:03:32;;;;;;;4.55;1.27;;;;;;;8.57;66.34;99900.97;5031847;28;20046;-80
2021/11/09 15:06:01;;;;;;;3.45;1.60;;;;;;;8.52;65.79;99903.31;5033031;28;20136;-80
2021/11/09 15:08:33;;;;;;;4.32;1.00;;;;;;;8.43;67.61;99887.91;5032565;28;20072;-80
2021/11/09 15:27:55;;;;;;;4.30;1.00;;;;;;;7.87;68.80;99877.13;5013269;28;20572;-79
2021/11/09 15:30:24;;;;;;;5.85;1.38;;;;;;;7.85;69.74;99871.00;5029862;28;20088;-78
2021/11/09 15:32:53;;;;;;;5.75;1.42;;;;;;;7.72;69.96;99875.91;5031612;28;20069;-78
2021/11/09 15:35:23;;;;;;;1.60;1.33;;;;;;;7.66;71.83;99887.34;5032241;28;20068;-78
2021/11/09 15:37:52;;;;;;;7.35;1.70;;;;;;;7.38;73.55;99881.88;5032392;28;20056;-79
2021/11/09 15:40:21;;;;;;;4.85;1.00;;;;;;;7.34;71.99;99872.34;5032814;28;20053;-79
2021/11/09 15:42:52;;;;;;;5.20;1.60;;;;;;;7.23;73.11;99885.03;5031703;28;20137;-78
2021/11/09 15:45:20;;;;;;;4.15;1.80;;;;;;;7.08;74.72;99889.22;5031184;28;20076;-79
2021/11/09 15:47:48;;;;;;;5.57;1.20;;;;;;;7.08;72.60;99875.69;5031823;28;20461;-79
2021/11/09 15:50:16;;;;;;;2.75;1.20;;;;;;;6.93;72.91;99887.94;5032137;28;20107;-79
2021/11/09 15:52:43;;;;;;;8.07;1.67;;;;;;;6.99;73.51;99893.63;5031316;28;20069;-79
2021/11/09 15:55:11;;;;;;;3.05;1.23;;;;;;;6.80;75.36;99872.84;5032122;28;20417;-79
2021/11/09 15:57:38;;;;;;;4.93;1.27;;;;;;;6.65;74.54;99883.25;5031960;28;20085;-79
2021/11/09 16:00:25;;;;;;;8.25;1.58;;;;;;;6.56;75.77;99892.19;5032175;28;20410;-79
2021/11/09 16:02:51;;;;;;;2.08;1.38;;;;;;;6.33;76.85;99892.47;5025579;28;20061;-79
2021/11/09 16:05:20;;;;;;;7.03;1.50;;;;;;;6.12;78.25;99889.03;5021891;28;20053;-79
2021/11/09 16:07:50;;;;;;;3.03;1.13;;;;;;;5.91;80.42;99879.13;5031801;28;20104;-79
2021/11/09 16:10:20;;;;;;;3.97;1.38;;;;;;;5.78;81.48;99879.38;5031452;28;20089;-79
2021/11/09 16:12:48;;;;;;;8.15;1.70;;;;;;;5.68;81.39;99886.56;5031164;28;20138;-79
2021/11/09 16:15:15;;;;;;;4.85;1.42;;;;;;;5.49;82.78;99876.53;5031836;28;20050;-79
2021/11/09 16:17:42;;;;;;;3.35;1.67;;;;;;;5.50;83.67;99894.44;5031558;28;20045;-79
2021/11/09 16:20:12;;;;;;;5.13;1.40;;;;;;;5.48;85.55;99901.81;5028632;28;20045;-79
2021/11/09 16:22:40;;;;;;;2.97;1.10;;;;;;;5.32;86.44;99895.06;5031290;28;20060;-79
2021/11/09 16:25:11;;;;;;;3.58;1.60;;;;;;;5.14;87.33;99894.81;5031575;28;20555;-79
2021/11/09 16:27:39;;;;;;;4.18;1.35;;;;;;;5.14;87.15;99904.75;5031109;28;20053;-79
2021/11/09 16:30:16;;;;;;;5.43;1.40;;;;;;;5.00;86.56;99903.22;5030672;28;20053;-79
2021/11/09 16:32:48;;;;;;;4.97;1.20;;;;;;;4.88;86.90;99894.34;5030479;28;20484;-79
2021/11/09 16:35:30;;;;;;;3.17;1.50;;;;;;;4.79;87.36;99898.66;5028718;28;20037;-78
2021/11/09 16:38:00;;;;;;;6.35;1.80;;;;;;;4.72;89.49;99912.78;5030772;28;20041;-79
2021/11/09 16:40:33;;;;;;;7.70;2.42;;;;;;;4.60;89.79;99912.81;5030691;28;20408;-78
2021/11/09 16:43:05;;;;;;;9.15;3.35;;;;;;;4.56;89.65;99911.38;5035264;28;20053;-80
2021/11/09 16:45:35;;;;;;;5.93;1.83;;;;;;;4.53;89.71;99922.41;5030158;28;20058;-79
2021/11/09 16:48:04;;;;;;;2.83;1.55;;;;;;;4.34;89.19;99925.78;5029500;28;20485;-79
2021/11/09 16:50:54;;;;;;;8.43;1.73;;;;;;;4.19;90.54;99922.50;5030959;28;20067;-79
2021/11/09 16:53:23;;;;;;;4.80;1.63;;;;;;;4.03;91.47;99912.13;5031463;28;20405;-79
2021/11/09 17:01:48;;;;;;;7.63;1.98;;;;;;;3.72;93.81;99932.56;5035214;28;20099;-80
2021/11/09 17:04:36;;;;;;;5.45;1.85;;;;;;;3.77;94.25;99941.13;5034474;28;20056;-80
2021/11/09 17:07:45;;;;;;;4.00;1.50;;;;;;;3.67;94.12;99942.81;5034550;28;20473;-80
2021/11/09 18:14:05;;;;;;;2.72;1.95;;;;;;;1.99;100.00;99912.56;5033568;28;20512;-80
2021/11/09 18:21:53;;;;;;;4.43;2.30;;;;;;;2.02;100.00;99918.56;5032167;28;20080;-80
2021/11/09 18:24:20;;;;;;;15.63;3.92;;;;;;;1.94;100.00;99915.56;5033590;28;20049;-80
2021/11/09 18:26:52;;;;;;;18.33;7.80;;;;;;;2.08;100.00;99960.19;5032751;28;20045;-80
2021/11/09 18:29:19;;;;;;;19.17;8.27;;;;;;;2.04;100.00;99947.97;5033336;28;20089;-80
2021/11/09 18:31:48;;;;;;;15.05;8.20;;;;;;;2.02;100.00;99941.84;5031581;28;20541;-79
2021/11/09 18:34:15;;;;;;;13.43;7.82;;;;;;;1.90;100.00;99940.91;5032553;28;20140;-80
2021/11/09 18:36:42;;;;;;;20.27;9.93;;;;;;;1.92;100.00;99957.75;5033010;28;20049;-80
2021/11/09 18:39:09;;;;;;;13.68;6.45;;;;;;;1.90;100.00;99954.31;5033112;28;20129;-80
2021/11/09 18:41:37;;;;;;;14.50;6.40;;;;;;;1.82;100.00;99940.59;5030200;28;20390;-80
2021/11/09 18:44:06;;;;;;;13.65;6.90;;;;;;;1.97;100.00;99938.63;5028289;28;20053;-80
2021/11/09 18:46:34;;;;;;;12.30;4.93;;;;;;;1.84;100.00;99934.16;5032698;28;20068;-79
2021/11/09 18:49:05;;;;;;;8.27;4.63;;;;;;;1.77;100.00;99946.28;5032550;28;20551;-80
2021/11/09 18:51:32;;;;;;;9.13;4.50;;;;;;;1.80;100.00;99937.19;5032628;28;20053;-80
2021/11/09 18:53:59;;;;;;;7.60;4.18;;;;;;;1.72;100.00;99943.94;5032781;28;20045;-79
2021/11/09 18:56:27;;;;;;;7.57;3.75;;;;;;;1.62;100.00;99931.31;5032823;28;20045;-80
2021/11/09 18:58:54;;;;;;;9.93;4.97;;;;;;;1.64;100.00;99945.44;5031745;28;20103;-80
2021/11/09 19:01:21;;;;;;;9.45;5.40;;;;;;;1.62;100.00;99937.50;5031768;28;20386;-80
2021/11/09 19:03:47;;;;;;;18.10;5.15;;;;;;;1.54;100.00;99930.03;5032937;28;20412;-80
2021/11/09 19:06:16;;;;;;;10.20;3.60;;;;;;;1.46;100.00;99927.03;5032597;28;20493;-80
2021/11/09 19:08:42;;;;;;;7.60;3.92;;;;;;;1.36;100.00;99913.41;5032914;28;20042;-79
2021/11/09 19:11:09;;;;;;;7.80;3.72;;;;;;;1.37;100.00;99919.63;5032718;28;20046;-80
2021/11/09 19:13:36;;;;;;;7.70;3.63;;;;;;;1.40;100.00;99922.97;5032450;28;20057;-79
2021/11/09 19:16:04;;;;;;;7.93;4.22;;;;;;;1.41;100.00;99924.66;5031075;28;20049;-80
2021/11/09 19:18:32;;;;;;;7.45;4.30;;;;;;;1.40;100.00;99922.09;5032549;28;20041;-80
2021/11/09 19:20:59;;;;;;;9.23;5.53;;;;;;;1.42;100.00;99925.53;5032312;28;20127;-80
2021/11/09 19:23:28;;;;;;;9.73;4.55;;;;;;;1.29;100.00;99922.84;5032181;28;20104;-79
2021/11/09 19:25:55;;;;;;;8.15;4.53;;;;;;;1.38;100.00;99916.84;5032848;28;20119;-80
2021/11/09 19:28:24;;;;;;;8.57;4.68;;;;;;;1.21;100.00;99885.88;5032409;28;20057;-80
2021/11/09 19:30:51;;;;;;;7.05;3.83;;;;;;;1.26;100.00;99895.41;5032398;28;20054;-79
2021/11/09 19:33:18;;;;;;;6.05;3.65;;;;;;;1.12;100.00;99907.94;5022655;28;20648;-79
2021/11/09 19:35:46;;;;;;;13.85;5.15;;;;;;;1.13;100.00;99903.44;5033095;28;20053;-79
2021/11/09 19:38:13;;;;;;;12.40;7.18;;;;;;;1.03;100.00;99874.63;5032262;28;20057;-79
2021/11/09 19:40:41;;;;;;;16.40;6.90;;;;;;;1.07;100.00;99912.78;5032482;28;20049;-80
2021/11/09 19:43:08;;;;;;;13.48;5.15;;;;;;;0.98;100.00;99932.13;5031962;28;20138;-80
2021/11/09 19:45:35;;;;;;;10.63;7.03;;;;;;;0.96;100.00;99942.94;5032263;28;20052;-79
2021/11/09 19:48:05;;;;;;;13.38;6.28;;;;;;;0.99;100.00;99941.88;5031604;28;20057;-79
2021/11/09 19:50:33;;;;;;;12.88;7.18;;;;;;;1.10;100.00;99946.50;5031816;28;20049;-79
2021/11/09 19:53:02;;;;;;;10.45;6.93;;;;;;;1.11;100.00;99938.34;5032494;28;20505;-80
2021/11/09 19:55:31;;;;;;;11.45;7.70;;;;;;;0.88;100.00;99922.06;5032241;28;20054;-80
2021/11/09 19:58:05;;;;;;;13.70;8.13;;;;;;;0.90;100.00;99923.78;5032302;28;20095;-80
2021/11/09 20:00:34;;;;;;;16.85;9.77;;;;;;;0.86;100.00;99932.00;5032085;28;20144;-79
2021/11/09 20:03:05;;;;;;;17.00;10.05;;;;;;;0.87;100.00;99928.38;5031902;28;20054;-80
2021/11/09 20:05:32;;;;;;;16.55;9.07;;;;;;;1.14;100.00;99907.84;5030750;28;20048;-79
2021/11/09 20:08:00;;;;;;;10.90;4.95;;;;;;;0.95;100.00;99910.91;5031895;28;20038;-79
2021/11/09 20:10:28;;;;;;;10.32;5.38;;;;;;;0.66;100.00;99905.72;5032010;28;20068;-79
2021/11/09 20:12:54;;;;;;;8.52;5.20;;;;;;;0.66;100.00;99911.97;5031984;28;20080;-79
2021/11/09 20:15:26;;;;;;;8.90;5.55;;;;;;;0.55;100.00;99910.97;5031873;28;20111;-79
2021/11/09 20:17:53;;;;;;;9.50;6.50;;;;;;;0.61;100.00;99926.59;5031974;28;20041;-79
2021/11/09 20:20:21;;;;;;;11.45;5.22;;;;;;;0.50;100.00;99927.31;5031751;28;20049;-79
2021/11/09 20:22:47;;;;;;;11.75;5.20;;;;;;;0.57;100.00;99904.53;5030525;28;20056;-79
2021/11/09 20:25:17;;;;;;;14.98;6.55;;;;;;;0.76;100.00;99914.84;5031843;28;20045;-79
2021/11/09 20:27:44;;;;;;;17.23;7.50;;;;;;;0.88;100.00;99913.16;5031763;28;20501;-79
2021/11/09 20:30:12;;;;;;;15.30;7.10;;;;;;;0.72;100.00;99883.06;5035800;28;20363;-79
2021/11/09 20:32:42;;;;;;;17.58;8.88;;;;;;;0.65;100.00;99891.50;5035483;28;20045;-79
2021/11/09 20:35:10;;;;;;;12.00;7.38;;;;;;;0.52;100.00;99899.47;5035657;28;20056;-80
2021/11/09 20:37:37;;;;;;;13.02;6.63;;;;;;;0.55;100.00;99924.34;5035716;28;20050;-80
2021/11/09 20:40:05;;;;;;;18.40;8.88;;;;;;;0.61;100.00;99903.38;5034430;28;20067;-80
2021/11/09 20:42:32;;;;;;;22.45;10.27;;;;;;;0.71;100.00;99884.88;5023559;28;20049;-79
2021/11/09 20:45:03;;;;;;;15.52;8.15;;;;;;;0.74;100.00;99876.66;5016025;28;20104;-79
2021/11/09 20:47:30;;;;;;;11.93;6.55;;;;;;;0.72;100.00;99885.72;5023309;28;20425;-79
2021/11/09 20:49:58;;;;;;;9.15;5.80;;;;;;;0.33;100.00;99877.59;5035568;28;20103;-79
2021/11/09 20:52:25;;;;;;;9.77;6.32;;;;;;;0.33;100.00;99897.19;5035286;28;20123;-80
2021/11/09 20:54:52;;;;;;;16.45;7.93;;;;;;;0.28;100.00;99926.03;5019406;28;20041;-79
2021/11/09 20:57:19;;;;;;;21.95;9.63;;;;;;;0.26;100.00;99917.28;5035521;28;20107;-79
2021/11/09 20:59:46;;;;;;;20.60;9.63;;;;;;;0.36;100.00;99928.22;5035239;28;20042;-79
2021/11/09 21:02:13;;;;;;;20.35;9.20;;;;;;;0.40;100.00;99931.56;5035286;28;20060;-79
2021/11/09 21:04:39;;;;;;;20.00;9.48;;;;;;;0.50;100.00;99924.66;5035263;28;20053;-79
2021/11/09 21:07:07;;;;;;;20.20;9.93;;;;;;;0.43;100.00;99908.13;5035287;28;20485;-79
2021/11/09 21:09:34;;;;;;;20.10;8.85;;;;;;;0.40;100.00;99935.09;5034135;28;20052;-80
2021/11/09 21:12:03;;;;;;;22.63;10.80;;;;;;;0.42;100.00;99943.88;5033332;28;20053;-82
2021/11/09 21:19:59;;;;;;;18.38;9.52;;;;;;;0.49;100.00;99923.78;5033753;28;20053;-79
2021/11/09 21:22:30;;;;;;;26.00;11.32;;;;;;;0.37;100.00;99934.44;5037367;28;20053;-80
2021/11/09 21:24:56;;;;;;;20.40;10.30;;;;;;;0.37;100.00;99937.97;5040979;28;20053;-79
2021/11/09 21:27:23;;;;;;;21.45;10.25;;;;;;;0.50;100.00;99940.69;5035988;28;20516;-79
2021/11/09 21:32:56;;;;;;;21.08;9.48;;;;;;;0.62;100.00;99947.91;5023665;28;20056;-79
2021/11/09 21:35:22;;;;;;;21.05;10.15;;;;;;;0.39;100.00;99930.69;5026587;28;20081;-79
2021/11/09 21:37:51;;;;;;;24.55;10.30;;;;;;;0.42;100.00;99951.91;5020441;28;20150;-80
2021/11/09 21:40:21;;;;;;;23.70;11.68;;;;;;;0.30;100.00;99924.16;5033742;28;20132;-79
2021/11/09 21:42:48;;;;;;;16.15;9.35;;;;;;;0.46;100.00;99937.34;5029283;28;20093;-80
2021/11/09 21:45:17;;;;;;;20.70;9.27;;;;;;;0.31;100.00;99941.91;5033430;28;20054;-79
2021/11/09 21:47:44;;;;;;;17.23;9.50;;;;;;;0.45;100.00;99951.72;5028369;28;20104;-79
2021/11/09 21:50:13;;;;;;;16.13;9.20;;;;;;;0.42;100.00;99951.03;5029350;28;20053;-79
2021/11/09 21:52:40;;;;;;;20.85;8.30;;;;;;;0.39;100.00;99930.69;5032672;28;20409;-80
2021/11/09 21:55:09;;;;;;;22.70;9.48;;;;;;;0.35;100.00;99938.06;5034170;28;20416;-79
2021/11/09 21:57:37;;;;;;;18.10;9.63;;;;;;;0.34;100.00;99940.84;5032375;28;20100;-79
2021/11/09 22:00:05;;;;;;;14.73;8.52;;;;;;;0.30;100.00;99916.13;5032330;28;20064;-79
2021/11/09 22:02:32;;;;;;;23.48;9.13;;;;;;;0.29;100.00;99932.28;5029796;28;20455;-80
2021/11/09 22:04:59;;;;;;;15.82;8.73;;;;;;;0.17;100.00;99904.50;5021579;28;20048;-79
2021/11/09 22:07:29;;;;;;;13.23;7.70;;;;;;;0.27;100.00;99927.03;5033463;28;20053;-80
2021/11/09 22:09:56;;;;;;;;;;;;;;;0.32;100.00;99922.22;5016749;28;20046;-79
2021/11/09 22:12:24;;;;;;;14.30;7.28;;;;;;;0.42;100.00;99918.94;5033328;28;19921;-80
2021/11/09 22:14:51;;;;;;;18.25;8.63;;;;;;;0.34;100.00;99912.25;5019463;28;20057;-79
2021/11/09 22:17:17;;;;;;;17.77;8.18;;;;;;;0.23;100.00;99909.44;5032858;28;20049;-79
2021/11/09 22:19:44;;;;;;;16.02;7.63;;;;;;;0.35;100.00;99914.00;5033798;28;20049;-79
2021/11/09 22:22:12;;;;;;;22.58;9.63;;;;;;;0.33;100.00;99901.66;5032187;28;20558;-79
2021/11/09 22:24:39;;;;;;;19.50;7.88;;;;;;;0.17;100.00;99904.50;5033667;28;20088;-79
2021/11/09 22:27:06;;;;;;;19.08;8.85;;;;;;;0.23;100.00;99905.94;5030900;28;20050;-79
2021/11/09 22:29:34;;;;;;;18.25;7.22;;;;;;;0.18;100.00;99908.88;5032368;28;20504;-80
2021/11/09 22:32:01;;;;;;;14.05;7.35;;;;;;;0.23;100.00;99905.94;5018337;28;20088;-81
2021/11/09 22:34:29;;;;;;;18.98;7.88;;;;;;;0.26;100.00;99897.72;5033484;28;20472;-81
2021/11/09 22:36:56;;;;;;;15.75;7.82;;;;;;;0.32;100.00;99910.66;5016782;28;20049;-81
2021/11/09 22:39:23;;;;;;;18.17;7.68;;;;;;;0.28;100.00;99915.34;5031525;28;20049;-80
2021/11/09 22:41:50;;;;;;;15.68;6.82;;;;;;;0.20;100.00;99903.44;5033003;28;20045;-81
2021/11/09 22:44:16;;;;;;;14.75;7.15;;;;;;;0.20;100.00;99896.28;5032970;28;20053;-80
2021/11/09 22:46:45;;;;;;;13.45;7.25;;;;;;;0.32;100.00;99905.31;5024000;28;20049;-81
2021/11/09 22:49:12;;;;;;;15.77;7.38;;;;;;;0.36;100.00;99909.50;5019472;28;20049;-80
2021/11/09 22:51:38;;;;;;;15.48;7.43;;;;;;;0.22;100.00;99894.34;5026841;28;20050;-81
2021/11/09 22:54:05;;;;;;;14.55;7.80;;;;;;;0.34;100.00;99912.25;5029814;28;20050;-80
2021/11/09 22:56:32;;;;;;;17.13;8.73;;;;;;;0.25;100.00;99894.16;5031458;28;20056;-80
2021/11/09 22:58:59;;;;;;;19.85;8.48;;;;;;;0.33;100.00;99915.03;5027921;28;20041;-80
2021/11/09 23:01:26;;;;;;;30.13;10.43;;;;;;;0.26;100.00;99898.56;5017289;28;20057;-80
2021/11/09 23:03:54;;;;;;;27.35;12.15;;;;;;;0.29;100.00;99913.56;5015522;28;20050;-81
2021/11/09 23:06:21;;;;;;;26.20;11.07;;;;;;;0.26;100.00;99922.63;5026376;28;20481;-80
2021/11/09 23:08:47;;;;;;;25.38;12.13;;;;;;;0.22;100.00;99909.56;5030523;28;20107;-80
2021/11/09 23:11:14;;;;;;;39.40;14.90;;;;;;;0.24;100.00;99902.28;5032284;28;20057;-79
2021/11/09 23:13:42;;;;;;;23.50;12.10;;;;;;;0.20;100.00;99890.06;5032151;28;20517;-79
2021/11/09 23:16:08;;;;;;;28.63;11.10;;;;;;;0.11;100.00;99900.41;5028903;28;20069;-79
2021/11/09 23:18:35;;;;;;;23.90;11.13;;;;;;;0.14;100.00;99910.91;5015066;28;20129;-79
2021/11/09 23:21:05;;;;;;;27.90;11.35;;;;;;;0.12;100.00;99906.59;5028025;28;20053;-79
2021/11/09 23:23:32;;;;;;;19.95;10.02;;;;;;;0.10;100.00;99905.88;5031483;28;20056;-79